Time;durP1;ratioP1;P1;durP2;ratioP2;P2;SDS_P1;SDS_P2;PMS_P1;PMS_P2;Temp;Humidity;BMP_temperature;BMP_pressure;BME280_temperature;BME280_humidity;BME280_pressure;Samples;Min_cycle;Max_cycle;Signal;HPM_P1;HPM_P2
2022/07/13 00:00:34;;;;;;;0.10;0.10;;;18.60;98.20;;;;;;4436758;32;20109;-64
2022/07/13 00:02:59;;;;;;;0.20;0.20;;;18.50;98.60;;;;;;4431552;32;20077;-64
2022/07/13 00:05:25;;;;;;;0.30;0.30;;;18.60;98.20;;;;;;4445580;32;20077;-64
2022/07/13 00:07:50;;;;;;;0.47;0.35;;;18.50;99.20;;;;;;4443929;32;20060;-64
2022/07/13 00:10:16;;;;;;;0.28;0.28;;;18.30;99.90;;;;;;4444431;32;20062;-64
2022/07/13 00:12:41;;;;;;;0.40;0.40;;;18.40;99.90;;;;;;4445309;32;20065;-64
2022/07/13 00:15:08;;;;;;;0.20;0.20;;;18.50;99.90;;;;;;4444581;32;20430;-64
2022/07/13 00:17:33;;;;;;;0.35;0.35;;;18.50;99.90;;;;;;4444126;32;20084;-64
2022/07/13 00:19:59;;;;;;;0.20;0.20;;;18.60;99.90;;;;;;4444324;32;20468;-64
2022/07/13 00:22:25;;;;;;;1.00;0.65;;;18.60;99.90;;;;;;4425440;32;20064;-64
2022/07/13 00:24:51;;;;;;;0.37;0.30;;;18.60;99.90;;;;;;4417236;32;20123;-64
2022/07/13 00:27:16;;;;;;;0.20;0.20;;;18.60;99.90;;;;;;4429547;32;20074;-64
2022/07/13 00:29:42;;;;;;;0.20;0.20;;;18.50;99.90;;;;;;4428263;32;20435;-64
2022/07/13 00:32:07;;;;;;;0.37;0.37;;;18.50;99.90;;;;;;4436408;32;20065;-64
2022/07/13 00:34:33;;;;;;;0.10;0.10;;;18.50;99.90;;;;;;4433592;32;20061;-64
2022/07/13 00:36:58;;;;;;;0.30;0.30;;;18.60;99.90;;;;;;4430080;32;20057;-64
2022/07/13 00:39:24;;;;;;;0.20;0.20;;;18.50;99.90;;;;;;4429823;32;20073;-64
2022/07/13 00:41:49;;;;;;;0.20;0.20;;;18.70;99.90;;;;;;4428223;32;20081;-64
2022/07/13 00:44:16;;;;;;;0.80;0.40;;;18.70;99.90;;;;;;4438314;32;20061;-64
2022/07/13 00:46:52;;;;;;;0.60;0.60;;;18.60;99.90;;;;;;4444664;32;20078;-64
2022/07/13 00:49:17;;;;;;;0.47;0.47;;;18.70;99.90;;;;;;4442768;32;20057;-64
2022/07/13 00:51:43;;;;;;;0.20;0.20;;;18.70;99.90;;;;;;4433672;32;20412;-64
2022/07/13 00:54:09;;;;;;;0.17;0.17;;;18.80;99.90;;;;;;4425018;32;20374;-64
2022/07/13 00:56:36;;;;;;;0.20;0.20;;;18.60;99.90;;;;;;4441981;32;20077;-64
2022/07/13 00:59:05;;;;;;;0.20;0.20;;;18.50;99.90;;;;;;4443692;32;20513;-64
2022/07/13 01:01:30;;;;;;;0.10;0.10;;;18.50;99.90;;;;;;4442665;32;20396;-64
2022/07/13 01:03:56;;;;;;;3.58;0.68;;;18.60;99.90;;;;;;4436957;32;20100;-64
2022/07/13 01:06:22;;;;;;;0.20;0.20;;;18.70;99.90;;;;;;4429503;32;20112;-64
2022/07/13 01:08:48;;;;;;;0.20;0.20;;;18.70;99.90;;;;;;4428958;32;20054;-64
2022/07/13 01:11:13;;;;;;;0.20;0.20;;;18.60;99.90;;;;;;4428583;32;20396;-64
2022/07/13 01:13:40;;;;;;;0.15;0.15;;;18.60;99.90;;;;;;4433295;32;20521;-64
2022/07/13 01:16:08;;;;;;;0.30;0.30;;;18.70;99.90;;;;;;4443443;32;20074;-64
2022/07/13 01:18:33;;;;;;;1.10;0.40;;;18.60;99.90;;;;;;4443135;32;20057;-64
2022/07/13 01:21:00;;;;;;;0.20;0.20;;;18.70;99.90;;;;;;4439434;32;20128;-64
2022/07/13 01:23:26;;;;;;;0.30;0.30;;;18.70;99.90;;;;;;4420885;32;20069;-64
2022/07/13 01:25:56;;;;;;;0.20;0.20;;;18.60;99.90;;;;;;4422736;32;20532;-64
2022/07/13 01:28:23;;;;;;;0.40;0.40;;;18.50;99.90;;;;;;4429446;32;20061;-64
2022/07/13 01:30:48;;;;;;;0.37;0.37;;;18.60;99.90;;;;;;4429570;32;20113;-64
2022/07/13 01:33:14;;;;;;;0.13;0.13;;;18.50;99.90;;;;;;4436784;32;91002;-64
2022/07/13 01:35:39;;;;;;;2.28;0.93;;;18.70;99.90;;;;;;4430959;32;20135;-65
2022/07/13 01:38:05;;;;;;;0.20;0.20;;;18.70;99.90;;;;;;4430639;32;20097;-65
2022/07/13 01:40:30;;;;;;;0.75;0.52;;;18.70;99.90;;;;;;4429750;32;20061;-65
2022/07/13 01:42:56;;;;;;;0.30;0.30;;;18.70;99.90;;;;;;4431341;32;20049;-65
2022/07/13 01:45:23;;;;;;;0.30;0.30;;;18.80;99.90;;;;;;4445750;32;20120;-65
2022/07/13 01:47:50;;;;;;;0.35;0.35;;;18.70;99.90;;;;;;4445457;32;20053;-65
2022/07/13 01:50:17;;;;;;;0.20;0.20;;;18.70;99.90;;;;;;4445230;32;20093;-65
2022/07/13 01:52:43;;;;;;;0.20;0.20;;;18.70;99.90;;;;;;4425241;32;20049;-65
2022/07/13 01:55:11;;;;;;;0.20;0.20;;;18.70;99.90;;;;;;4433046;32;20053;-65
2022/07/13 01:57:37;;;;;;;0.22;0.22;;;18.80;99.90;;;;;;4447285;32;20089;-65
2022/07/13 02:00:06;;;;;;;2.90;1.40;;;18.70;99.90;;;;;;4445891;32;20465;-65
2022/07/13 02:02:31;;;;;;;0.40;0.40;;;18.70;99.90;;;;;;4447312;32;20081;-65
2022/07/13 02:04:57;;;;;;;0.20;0.20;;;18.50;99.90;;;;;;4434046;32;20070;-65
2022/07/13 02:07:22;;;;;;;0.20;0.20;;;18.60;99.90;;;;;;4429755;32;20127;-65
2022/07/13 02:09:49;;;;;;;0.35;0.35;;;18.60;99.90;;;;;;4429576;32;20061;-65
2022/07/13 02:12:15;;;;;;;0.20;0.20;;;18.70;99.90;;;;;;4429426;32;20533;-65
2022/07/13 02:14:41;;;;;;;0.20;0.20;;;18.70;99.90;;;;;;4442362;32;20136;-65
2022/07/13 02:17:06;;;;;;;0.20;0.20;;;18.70;99.90;;;;;;4445848;32;20086;-65
2022/07/13 02:19:31;;;;;;;0.40;0.40;;;18.70;99.90;;;;;;4445796;32;20427;-65
2022/07/13 02:21:57;;;;;;;2.92;0.90;;;18.80;99.90;;;;;;4432422;32;20152;-65
2022/07/13 02:24:22;;;;;;;0.40;0.40;;;18.60;99.90;;;;;;4417425;32;20139;-65
2022/07/13 02:26:49;;;;;;;0.32;0.32;;;18.60;99.90;;;;;;4430580;32;20065;-65
2022/07/13 02:29:14;;;;;;;0.30;0.30;;;18.60;99.90;;;;;;4429807;32;20137;-65
2022/07/13 02:31:40;;;;;;;0.30;0.30;;;18.70;99.90;;;;;;4433969;32;20064;-65
2022/07/13 02:34:05;;;;;;;0.30;0.30;;;18.80;99.90;;;;;;4438851;32;20057;-65
2022/07/13 02:36:31;;;;;;;0.30;0.30;;;18.70;99.90;;;;;;4430860;32;20189;-65
2022/07/13 02:38:56;;;;;;;0.50;0.50;;;18.70;99.90;;;;;;4429879;32;20062;-65
2022/07/13 02:41:21;;;;;;;0.20;0.20;;;18.70;99.90;;;;;;4431428;32;20085;-65
2022/07/13 02:43:47;;;;;;;0.30;0.30;;;18.70;99.90;;;;;;4433540;32;20531;-65
2022/07/13 02:46:13;;;;;;;0.30;0.30;;;18.70;99.90;;;;;;4445013;32;20065;-65
2022/07/13 02:48:38;;;;;;;0.40;0.40;;;18.70;99.90;;;;;;4444905;32;20140;-65
2022/07/13 02:51:04;;;;;;;0.20;0.20;;;18.60;99.90;;;;;;4440222;32;20068;-65
2022/07/13 02:53:29;;;;;;;0.25;0.25;;;18.60;99.90;;;;;;4425430;32;20199;-65
2022/07/13 02:55:55;;;;;;;2.10;0.95;;;18.60;99.90;;;;;;4439906;32;20073;-65
2022/07/13 02:58:20;;;;;;;0.20;0.20;;;18.50;99.90;;;;;;4444692;32;20069;-65
2022/07/13 03:00:46;;;;;;;2.90;1.20;;;18.40;99.90;;;;;;4446113;32;20049;-65
2022/07/13 03:03:11;;;;;;;0.20;0.20;;;18.40;99.90;;;;;;4443072;32;20435;-65
2022/07/13 03:05:36;;;;;;;0.20;0.20;;;18.40;99.90;;;;;;4445728;32;20069;-65
2022/07/13 03:08:02;;;;;;;0.20;0.20;;;18.40;99.90;;;;;;4445320;32;20069;-65
2022/07/13 03:10:28;;;;;;;0.37;0.37;;;18.40;99.90;;;;;;4445721;32;20077;-65
2022/07/13 03:12:54;;;;;;;0.30;0.30;;;18.40;99.90;;;;;;4445712;32;20082;-65
2022/07/13 03:15:20;;;;;;;0.20;0.20;;;18.40;99.90;;;;;;4432323;32;20113;-65
2022/07/13 03:17:46;;;;;;;0.25;0.25;;;18.40;99.90;;;;;;4429580;32;20066;-65
2022/07/13 03:20:12;;;;;;;0.30;0.30;;;18.40;99.90;;;;;;4429519;32;20524;-65
2022/07/13 03:22:38;;;;;;;0.22;0.22;;;18.40;99.90;;;;;;4410642;32;20077;-65
2022/07/13 03:25:05;;;;;;;0.30;0.30;;;18.50;99.90;;;;;;4427706;32;20069;-65
2022/07/13 03:27:30;;;;;;;0.30;0.30;;;18.40;99.90;;;;;;4445543;32;20073;-65
2022/07/13 03:29:56;;;;;;;0.30;0.30;;;18.40;99.90;;;;;;4444383;32;20481;-65
2022/07/13 03:32:21;;;;;;;0.47;0.30;;;18.50;99.90;;;;;;4429829;32;20094;-65
2022/07/13 03:34:47;;;;;;;0.22;0.22;;;18.60;99.90;;;;;;4428104;32;20065;-65
2022/07/13 03:37:13;;;;;;;0.20;0.20;;;18.60;99.90;;;;;;4428854;32;20073;-65
2022/07/13 03:39:38;;;;;;;0.30;0.30;;;18.60;99.90;;;;;;4429096;32;20081;-65
2022/07/13 03:42:05;;;;;;;0.25;0.25;;;18.60;99.90;;;;;;4429092;32;20473;-65
2022/07/13 03:44:30;;;;;;;0.20;0.20;;;18.60;99.90;;;;;;4438407;32;20085;-65
2022/07/13 03:46:56;;;;;;;0.40;0.40;;;18.50;99.90;;;;;;4430628;32;20121;-65
2022/07/13 03:49:21;;;;;;;0.20;0.20;;;18.50;99.90;;;;;;4445395;32;20073;-65
2022/07/13 03:51:48;;;;;;;0.73;0.40;;;18.50;99.90;;;;;;4431977;32;20069;-65
2022/07/13 03:54:14;;;;;;;0.30;0.30;;;18.50;99.90;;;;;;4425666;32;20466;-65
2022/07/13 03:56:39;;;;;;;0.20;0.20;;;18.60;99.90;;;;;;4441480;32;20138;-65
2022/07/13 03:59:05;;;;;;;0.20;0.20;;;18.70;99.90;;;;;;4444131;32;20124;-65
2022/07/13 04:01:31;;;;;;;0.47;0.47;;;18.70;99.90;;;;;;4443187;32;20452;-65
2022/07/13 04:03:58;;;;;;;0.30;0.30;;;18.80;99.90;;;;;;4427143;32;20077;-65
2022/07/13 04:06:24;;;;;;;0.20;0.20;;;18.80;99.90;;;;;;4433168;32;20065;-65
2022/07/13 04:08:50;;;;;;;0.20;0.20;;;18.80;99.90;;;;;;4434662;32;20064;-65
2022/07/13 04:11:15;;;;;;;0.40;0.40;;;18.80;99.90;;;;;;4437636;32;20077;-65
2022/07/13 04:13:41;;;;;;;0.20;0.20;;;18.90;99.90;;;;;;4435501;32;20093;-65
2022/07/13 04:16:07;;;;;;;0.22;0.22;;;18.90;99.90;;;;;;4429844;32;20065;-65
2022/07/13 04:18:32;;;;;;;0.40;0.40;;;18.90;99.90;;;;;;4429518;32;20157;-65
2022/07/13 04:20:58;;;;;;;0.20;0.20;;;19.00;99.90;;;;;;4425047;32;20084;-65
2022/07/13 04:23:24;;;;;;;0.45;0.45;;;18.90;99.90;;;;;;4407055;32;20078;-65
2022/07/13 04:25:49;;;;;;;0.80;0.28;;;19.00;99.90;;;;;;4431569;32;20069;-65
2022/07/13 04:28:14;;;;;;;0.22;0.22;;;19.00;99.90;;;;;;4437464;32;20127;-65
2022/07/13 04:30:40;;;;;;;0.30;0.30;;;19.00;99.90;;;;;;4433110;32;20116;-65
2022/07/13 04:33:05;;;;;;;0.37;0.37;;;19.00;99.90;;;;;;4431805;32;20099;-65
2022/07/13 04:35:31;;;;;;;0.30;0.30;;;19.00;99.90;;;;;;4431030;32;20122;-65
2022/07/13 04:37:56;;;;;;;0.30;0.30;;;19.10;99.90;;;;;;4438451;32;20468;-65
2022/07/13 04:40:22;;;;;;;0.28;0.28;;;19.10;99.90;;;;;;4441744;32;20142;-65
2022/07/13 04:42:47;;;;;;;0.30;0.30;;;19.10;99.90;;;;;;4429438;32;20070;-65
2022/07/13 04:45:13;;;;;;;0.40;0.40;;;19.10;99.90;;;;;;4437579;32;20065;-65
2022/07/13 04:47:39;;;;;;;2.40;0.40;;;19.10;99.90;;;;;;4435276;32;20073;-66
2022/07/13 04:50:05;;;;;;;0.30;0.30;;;19.10;99.90;;;;;;4427616;32;20073;-66
2022/07/13 04:52:31;;;;;;;0.30;0.30;;;19.20;99.90;;;;;;4417501;32;20993;-65
2022/07/13 04:54:56;;;;;;;0.45;0.45;;;19.20;99.90;;;;;;4429696;32;20151;-65
2022/07/13 04:57:22;;;;;;;0.20;0.20;;;19.30;99.90;;;;;;4443736;32;20077;-65
2022/07/13 04:59:47;;;;;;;0.30;0.30;;;19.30;99.90;;;;;;4441909;32;20068;-65
2022/07/13 05:02:13;;;;;;;0.30;0.30;;;19.40;99.90;;;;;;4434230;32;20124;-66
2022/07/13 05:04:38;;;;;;;0.28;0.28;;;19.30;99.90;;;;;;4423441;32;20126;-66
2022/07/13 05:07:04;;;;;;;0.28;0.28;;;19.20;99.90;;;;;;4424965;32;20060;-66
2022/07/13 05:09:30;;;;;;;0.30;0.30;;;19.30;99.90;;;;;;4427610;32;20556;-66
2022/07/13 05:12:00;;;;;;;0.40;0.40;;;19.30;99.90;;;;;;4424328;32;20093;-65
2022/07/13 05:14:25;;;;;;;0.30;0.30;;;19.30;99.90;;;;;;4429150;32;20128;-66
2022/07/13 05:16:51;;;;;;;0.30;0.30;;;19.30;99.90;;;;;;4427059;32;20491;-66
2022/07/13 05:19:16;;;;;;;0.20;0.20;;;19.30;99.90;;;;;;4423768;32;20128;-66
2022/07/13 05:21:42;;;;;;;0.40;0.40;;;19.30;99.90;;;;;;4425943;32;20490;-63
2022/07/13 05:24:07;;;;;;;0.20;0.20;;;19.40;99.90;;;;;;4409372;32;20089;-64
2022/07/13 05:26:33;;;;;;;1.33;0.45;;;19.40;99.90;;;;;;4421833;32;20061;-64
2022/07/13 05:28:58;;;;;;;0.20;0.20;;;19.50;99.90;;;;;;4436514;32;20073;-66
2022/07/13 05:31:24;;;;;;;0.20;0.20;;;19.50;99.90;;;;;;4426922;32;20412;-66
2022/07/13 05:33:49;;;;;;;0.20;0.20;;;19.60;99.90;;;;;;4420946;32;20077;-66
2022/07/13 05:36:15;;;;;;;0.22;0.22;;;19.60;99.90;;;;;;4444889;32;20073;-65
2022/07/13 05:38:40;;;;;;;0.17;0.17;;;19.80;99.90;;;;;;4442982;32;20107;-66
2022/07/13 05:41:06;;;;;;;1.27;0.62;;;19.80;99.90;;;;;;4438868;32;20070;-66
2022/07/13 05:43:31;;;;;;;0.20;0.20;;;19.80;99.90;;;;;;4433447;32;20462;-66
2022/07/13 05:45:57;;;;;;;0.37;0.37;;;19.90;99.90;;;;;;4424382;32;20475;-66
2022/07/13 05:48:22;;;;;;;0.30;0.30;;;19.90;99.90;;;;;;4445714;32;20081;-66
2022/07/13 05:50:48;;;;;;;13.60;0.60;;;20.00;99.90;;;;;;4442852;32;20186;-66
2022/07/13 05:53:14;;;;;;;0.20;0.20;;;20.00;99.90;;;;;;4426628;32;20480;-66
2022/07/13 05:55:40;;;;;;;0.20;0.20;;;20.00;99.90;;;;;;4438751;32;20531;-66
2022/07/13 05:58:05;;;;;;;5.62;1.27;;;20.10;99.90;;;;;;4447123;32;20069;-66
2022/07/13 06:00:31;;;;;;;0.20;0.20;;;20.10;99.90;;;;;;4444357;32;20465;-66
2022/07/13 06:02:57;;;;;;;0.40;0.40;;;20.20;99.90;;;;;;4434402;32;20087;-66
2022/07/13 06:05:23;;;;;;;0.22;0.22;;;20.10;99.90;;;;;;4433228;32;20060;-65
2022/07/13 06:07:48;;;;;;;1.35;0.50;;;20.10;99.90;;;;;;4445708;32;20085;-66
2022/07/13 06:10:14;;;;;;;0.20;0.20;;;20.20;99.90;;;;;;4445105;32;20061;-66
2022/07/13 06:12:39;;;;;;;0.30;0.30;;;20.20;99.90;;;;;;4441231;32;20527;-66
2022/07/13 06:15:05;;;;;;;0.20;0.20;;;20.30;99.90;;;;;;4429507;32;20086;-66
2022/07/13 06:17:31;;;;;;;0.30;0.30;;;20.30;99.90;;;;;;4428590;32;20124;-66
2022/07/13 06:19:56;;;;;;;0.30;0.30;;;20.40;99.90;;;;;;4430208;32;20058;-66
2022/07/13 06:22:22;;;;;;;0.30;0.30;;;20.50;99.90;;;;;;4413959;32;20093;-66
2022/07/13 06:24:47;;;;;;;0.20;0.20;;;20.50;99.90;;;;;;4420611;32;20454;-66
2022/07/13 06:27:13;;;;;;;0.20;0.20;;;20.60;99.90;;;;;;4445717;32;20072;-66
2022/07/13 06:29:38;;;;;;;0.30;0.30;;;20.70;99.90;;;;;;4446339;32;20123;-66
2022/07/13 06:32:04;;;;;;;0.20;0.20;;;20.80;99.90;;;;;;4437592;32;20085;-65
2022/07/13 06:34:30;;;;;;;0.20;0.20;;;20.80;99.90;;;;;;4429992;32;20124;-65
2022/07/13 06:36:55;;;;;;;0.40;0.40;;;20.90;99.90;;;;;;4445433;32;20155;-65
2022/07/13 06:39:21;;;;;;;0.32;0.32;;;21.00;99.90;;;;;;4445299;32;20498;-65
2022/07/13 06:41:46;;;;;;;0.20;0.20;;;21.10;99.90;;;;;;4444647;32;20073;-65
2022/07/13 06:44:12;;;;;;;0.35;0.35;;;21.10;99.90;;;;;;4434579;32;20173;-65
2022/07/13 06:46:38;;;;;;;0.62;0.28;;;21.20;99.90;;;;;;4441043;32;20065;-65
2022/07/13 06:49:03;;;;;;;0.20;0.20;;;21.20;99.90;;;;;;4446637;32;20505;-66
2022/07/13 06:51:29;;;;;;;0.30;0.30;;;21.30;99.90;;;;;;4436656;32;20077;-65
2022/07/13 06:53:54;;;;;;;0.30;0.30;;;21.40;99.90;;;;;;4425333;32;20460;-65
2022/07/13 06:56:20;;;;;;;2.90;0.75;;;21.50;99.90;;;;;;4441155;32;20065;-65
2022/07/13 06:58:46;;;;;;;0.28;0.28;;;21.60;99.90;;;;;;4434748;32;20064;-65
2022/07/13 07:01:12;;;;;;;0.20;0.20;;;21.60;99.90;;;;;;4440779;32;20528;-65
2022/07/13 07:03:37;;;;;;;0.22;0.22;;;21.70;99.90;;;;;;4435960;32;20079;-65
2022/07/13 07:06:04;;;;;;;0.30;0.30;;;21.70;99.90;;;;;;4440123;32;20510;-65
2022/07/13 07:08:29;;;;;;;0.20;0.20;;;21.80;99.90;;;;;;4431178;32;20346;-65
2022/07/13 07:10:55;;;;;;;0.45;0.35;;;21.90;99.90;;;;;;4430415;32;20371;-65
2022/07/13 07:13:21;;;;;;;0.57;0.30;;;22.00;99.90;;;;;;4420739;32;20078;-65
2022/07/13 07:15:46;;;;;;;0.20;0.20;;;22.00;99.90;;;;;;4431518;32;20085;-65
2022/07/13 07:18:12;;;;;;;0.88;0.52;;;22.10;99.90;;;;;;4445945;32;20175;-65
2022/07/13 07:20:38;;;;;;;0.10;0.10;;;22.10;99.90;;;;;;4442718;32;20489;-65
2022/07/13 07:23:03;;;;;;;0.40;0.28;;;22.10;99.90;;;;;;4423691;32;20073;-65
2022/07/13 07:25:29;;;;;;;0.20;0.20;;;22.20;99.90;;;;;;4426808;32;20073;-65
2022/07/13 07:27:55;;;;;;;1.45;0.70;;;22.20;99.90;;;;;;4430379;32;20070;-65
2022/07/13 07:30:20;;;;;;;0.20;0.20;;;22.20;99.90;;;;;;4426275;32;20061;-65
2022/07/13 07:32:45;;;;;;;0.30;0.30;;;22.30;99.90;;;;;;4419210;32;20132;-65
2022/07/13 07:35:11;;;;;;;0.25;0.25;;;22.30;99.90;;;;;;4436831;32;20082;-65
2022/07/13 07:37:39;;;;;;;0.30;0.30;;;22.50;99.90;;;;;;4444575;32;20065;-65
2022/07/13 07:40:06;;;;;;;0.30;0.30;;;22.50;99.90;;;;;;4437884;32;20128;-65
2022/07/13 07:42:31;;;;;;;0.68;0.25;;;22.60;99.90;;;;;;4426056;32;20065;-65
2022/07/13 07:44:57;;;;;;;0.30;0.30;;;22.70;99.90;;;;;;4410642;32;20073;-65
2022/07/13 07:47:25;;;;;;;0.13;0.13;;;22.80;99.90;;;;;;4442795;32;20120;-65
2022/07/13 07:49:52;;;;;;;0.20;0.20;;;22.80;99.90;;;;;;4443951;32;20065;-65
2022/07/13 07:52:18;;;;;;;0.20;0.20;;;22.90;99.90;;;;;;4427889;32;20597;-65
2022/07/13 07:54:43;;;;;;;0.10;0.10;;;23.00;99.90;;;;;;4425050;32;20073;-65
2022/07/13 07:57:09;;;;;;;0.20;0.20;;;23.10;99.90;;;;;;4445150;32;20126;-65
2022/07/13 07:59:34;;;;;;;0.20;0.20;;;23.20;99.90;;;;;;4444540;32;20069;-65
2022/07/13 08:02:00;;;;;;;0.20;0.20;;;23.40;99.90;;;;;;4435921;32;20119;-65
2022/07/13 08:04:25;;;;;;;0.20;0.20;;;23.50;99.90;;;;;;4435299;32;20085;-65
2022/07/13 08:06:51;;;;;;;0.20;0.20;;;23.60;99.90;;;;;;4435802;32;20123;-65
2022/07/13 08:09:16;;;;;;;0.20;0.20;;;23.70;99.90;;;;;;4445046;32;20552;-65
2022/07/13 08:11:41;;;;;;;0.40;0.40;;;23.70;99.90;;;;;;4444244;32;20099;-65
2022/07/13 08:14:08;;;;;;;2.15;0.32;;;23.80;99.90;;;;;;4433536;32;20073;-65
2022/07/13 08:16:33;;;;;;;0.20;0.20;;;23.90;99.90;;;;;;4435823;32;20065;-65
2022/07/13 08:18:59;;;;;;;0.20;0.20;;;23.90;99.00;;;;;;4445335;32;20096;-65
2022/07/13 08:21:26;;;;;;;0.20;0.20;;;23.90;98.60;;;;;;4436964;32;20593;-65
2022/07/13 08:23:51;;;;;;;0.13;0.13;;;24.00;98.80;;;;;;4425445;32;20568;-65
2022/07/13 08:26:19;;;;;;;0.30;0.30;;;24.10;98.00;;;;;;4428375;32;20057;-65
2022/07/13 08:28:44;;;;;;;0.20;0.20;;;24.30;98.50;;;;;;4428984;32;20082;-65
2022/07/13 08:31:11;;;;;;;0.20;0.20;;;24.40;98.50;;;;;;4422836;32;20473;-65
2022/07/13 08:38:38;;;;;;;0.20;0.20;;;24.70;97.70;;;;;;4439176;32;20454;-65
2022/07/13 08:39:10;;;;;;;0.13;0.13;;;24.90;97.60;;;;;;4432447;32;20090;-65
2022/07/13 08:41:36;;;;;;;0.10;0.10;;;25.10;96.90;;;;;;4443485;32;20123;-65
2022/07/13 08:44:01;;;;;;;0.10;0.10;;;25.10;96.70;;;;;;4437376;32;20069;-65
2022/07/13 08:46:27;;;;;;;0.10;0.10;;;25.10;97.00;;;;;;4438665;32;20057;-65
2022/07/13 08:48:54;;;;;;;0.32;0.15;;;25.10;96.10;;;;;;4445645;32;20060;-65
2022/07/13 08:51:22;;;;;;;0.10;0.10;;;25.20;96.20;;;;;;4440625;32;20073;-65
2022/07/13 08:53:51;;;;;;;0.10;0.10;;;25.20;96.10;;;;;;4423575;32;20848;-65
2022/07/13 08:56:16;;;;;;;0.25;0.25;;;25.40;96.10;;;;;;4427845;32;20126;-65
2022/07/13 08:58:42;;;;;;;0.13;0.13;;;25.60;95.90;;;;;;4447479;32;20065;-65
2022/07/13 09:01:09;;;;;;;0.43;0.20;;;25.60;94.90;;;;;;4440859;32;20124;-65
2022/07/13 09:03:36;;;;;;;0.10;0.10;;;25.70;94.90;;;;;;4434653;32;20110;-65
2022/07/13 09:06:02;;;;;;;0.10;0.10;;;25.60;94.30;;;;;;4444188;32;20111;-65
2022/07/13 09:08:28;;;;;;;0.10;0.10;;;25.60;94.40;;;;;;4446104;32;20116;-65
2022/07/13 09:10:57;;;;;;;0.15;0.15;;;25.70;93.90;;;;;;4446487;32;20077;-65
2022/07/13 09:13:44;;;;;;;0.10;0.10;;;25.70;94.40;;;;;;4438435;32;20134;-65
2022/07/13 09:16:28;;;;;;;0.10;0.10;;;25.70;94.10;;;;;;4436002;32;20065;-65
2022/07/13 09:18:56;;;;;;;0.10;0.10;;;25.90;94.10;;;;;;4446206;32;20057;-65
2022/07/13 09:21:23;;;;;;;0.10;0.10;;;25.90;94.10;;;;;;4438403;32;20064;-65
2022/07/13 09:23:53;;;;;;;0.20;0.20;;;25.90;93.90;;;;;;4425268;32;20062;-66
2022/07/13 09:26:21;;;;;;;0.28;0.13;;;25.90;94.00;;;;;;4432587;32;20078;-65
2022/07/13 09:28:48;;;;;;;0.28;0.28;;;26.10;94.30;;;;;;4430647;32;20069;-65
2022/07/13 09:31:15;;;;;;;0.10;0.10;;;26.30;94.60;;;;;;4425609;32;20602;-65
2022/07/13 09:33:43;;;;;;;0.10;0.10;;;26.50;93.70;;;;;;4420502;32;20192;-65
2022/07/13 09:36:15;;;;;;;0.10;0.10;;;26.70;94.10;;;;;;4436185;32;20061;-65
2022/07/13 09:38:43;;;;;;;0.10;0.10;;;26.90;93.60;;;;;;4429847;32;20556;-65
2022/07/13 09:41:19;;;;;;;0.10;0.10;;;27.00;93.60;;;;;;4430832;32;20116;-65
2022/07/13 09:46:09;;;;;;;0.10;0.10;;;27.20;92.70;;;;;;4419987;32;20061;-65
2022/07/13 09:46:54;;;;;;;0.25;0.25;;;27.10;92.60;;;;;;4415407;32;20061;-65
2022/07/13 09:49:29;;;;;;;0.10;0.10;;;27.10;92.70;;;;;;4432407;32;20065;-65
2022/07/13 09:51:57;;;;;;;0.30;0.15;;;27.10;92.50;;;;;;4417482;32;20069;-65
2022/07/13 09:54:28;;;;;;;0.00;0.00;;;27.10;92.00;;;;;;4417214;32;20335;-65
2022/07/13 09:56:57;;;;;;;1.00;0.68;;;27.20;92.30;;;;;;4446492;32;20069;-65
2022/07/13 09:59:24;;;;;;;0.10;0.10;;;27.30;92.00;;;;;;4446767;32;20082;-65
2022/07/13 10:01:50;;;;;;;0.20;0.20;;;27.30;92.20;;;;;;4438287;32;20089;-65
2022/07/13 10:04:17;;;;;;;0.28;0.28;;;27.20;91.80;;;;;;4422797;32;20058;-65
2022/07/13 10:06:42;;;;;;;0.20;0.20;;;27.10;91.80;;;;;;4435951;32;20050;-65
2022/07/13 10:09:08;;;;;;;0.30;0.30;;;27.10;92.30;;;;;;4430860;32;20093;-65
2022/07/13 10:11:34;;;;;;;0.10;0.10;;;27.20;91.90;;;;;;4429558;32;20298;-65
2022/07/13 10:14:00;;;;;;;0.05;0.05;;;27.30;92.30;;;;;;4421019;32;20061;-65
2022/07/13 10:16:30;;;;;;;0.03;0.03;;;27.30;91.80;;;;;;4424534;32;20082;-65
2022/07/13 10:19:03;;;;;;;0.10;0.10;;;27.40;92.20;;;;;;4430192;32;20056;-65
2022/07/13 10:21:46;;;;;;;0.25;0.20;;;27.40;91.60;;;;;;4420425;32;20486;-65
2022/07/13 10:24:16;;;;;;;0.10;0.10;;;27.60;91.40;;;;;;4411940;32;20093;-65
2022/07/13 10:26:41;;;;;;;0.35;0.20;;;27.80;91.60;;;;;;4441126;32;20073;-66
2022/07/13 10:29:10;;;;;;;0.10;0.10;;;27.80;91.60;;;;;;4446780;32;20082;-66
2022/07/13 10:31:36;;;;;;;0.25;0.17;;;27.90;91.50;;;;;;4424838;32;20072;-65
2022/07/13 10:34:04;;;;;;;0.10;0.10;;;27.70;91.10;;;;;;4434436;32;20065;-65
2022/07/13 10:36:54;;;;;;;0.10;0.10;;;27.90;91.30;;;;;;4444832;32;20089;-65
2022/07/13 10:39:23;;;;;;;0.10;0.10;;;27.90;90.90;;;;;;4434682;32;20411;-65
2022/07/13 10:42:07;;;;;;;0.10;0.10;;;28.00;91.00;;;;;;4442979;32;20133;-65
2022/07/13 10:44:37;;;;;;;0.10;0.10;;;28.00;90.00;;;;;;4432830;32;20069;-65
2022/07/13 10:47:04;;;;;;;;;;;27.90;90.10;;;;;;4427857;32;20060;-65
2022/07/13 10:49:33;;;;;;;1.17;0.30;;;27.70;90.30;;;;;;4444387;32;19948;-65
2022/07/13 10:52:21;;;;;;;0.17;0.17;;;27.60;90.80;;;;;;4431952;32;20069;-65
2022/07/13 10:55:07;;;;;;;0.00;0.00;;;27.60;90.90;;;;;;4424612;32;20463;-65
2022/07/13 10:57:35;;;;;;;0.73;0.50;;;27.50;90.30;;;;;;4429358;32;20088;-65
2022/07/13 11:00:19;;;;;;;0.10;0.10;;;27.30;90.30;;;;;;4428361;32;20155;-65
2022/07/13 11:02:50;;;;;;;0.25;0.17;;;27.30;90.20;;;;;;4418125;32;20070;-65
2022/07/13 11:05:17;;;;;;;0.10;0.10;;;27.40;90.50;;;;;;4422677;32;20117;-65
2022/07/13 11:07:46;;;;;;;0.10;0.10;;;27.40;90.50;;;;;;4428576;32;20116;-65
2022/07/13 11:10:23;;;;;;;0.10;0.10;;;27.40;90.60;;;;;;4428548;32;20062;-65
2022/07/13 11:12:58;;;;;;;1.05;0.50;;;27.40;90.00;;;;;;4424014;32;20078;-65
2022/07/13 11:15:24;;;;;;;0.13;0.13;;;27.50;90.30;;;;;;4417670;32;20061;-65
2022/07/13 11:17:52;;;;;;;0.10;0.10;;;27.70;90.20;;;;;;4427491;32;20073;-65
2022/07/13 11:20:18;;;;;;;0.10;0.10;;;27.90;90.10;;;;;;4428862;32;20120;-65
2022/07/13 11:25:16;;;;;;;0.10;0.10;;;27.90;89.70;;;;;;4409985;32;20576;-65
2022/07/13 11:25:50;;;;;;;0.00;0.00;;;27.80;90.10;;;;;;4433444;32;20094;-65
2022/07/13 11:28:27;;;;;;;0.20;0.20;;;27.70;90.20;;;;;;4445329;32;20064;-65
2022/07/13 11:30:54;;;;;;;0.15;0.15;;;27.70;90.10;;;;;;4441114;32;20632;-65
2022/07/13 11:33:20;;;;;;;0.10;0.10;;;27.60;87.40;;;;;;4433230;32;20070;-65
2022/07/13 11:35:47;;;;;;;0.10;0.10;;;27.60;85.70;;;;;;4429183;32;20537;-65
2022/07/13 11:38:15;;;;;;;0.10;0.10;;;27.50;83.80;;;;;;4438225;32;20080;-65
2022/07/13 11:40:40;;;;;;;0.05;0.05;;;27.50;83.50;;;;;;4428203;32;20078;-65
2022/07/13 11:43:08;;;;;;;0.10;0.10;;;27.50;82.60;;;;;;4421527;32;20077;-65
2022/07/13 11:45:34;;;;;;;0.10;0.10;;;27.50;83.80;;;;;;4406359;32;20091;-65
2022/07/13 11:48:02;;;;;;;0.20;0.20;;;27.70;84.50;;;;;;4428780;32;20457;-65
2022/07/13 11:50:46;;;;;;;0.17;0.17;;;27.80;84.20;;;;;;4429034;32;20530;-65
2022/07/13 11:53:21;;;;;;;0.25;0.20;;;28.00;83.80;;;;;;4409873;32;20679;-65
2022/07/13 11:55:47;;;;;;;1.27;0.52;;;28.20;83.80;;;;;;4433377;32;20082;-66
2022/07/13 11:58:22;;;;;;;0.05;0.05;;;28.10;83.20;;;;;;4445772;32;20150;-66
2022/07/13 12:00:47;;;;;;;0.30;0.30;;;28.00;82.30;;;;;;4441737;32;20508;-65
2022/07/13 12:03:13;;;;;;;0.22;0.22;;;28.10;83.10;;;;;;4433771;32;20160;-65
2022/07/13 12:05:42;;;;;;;0.10;0.10;;;28.10;83.00;;;;;;4429765;32;20504;-65
2022/07/13 12:08:08;;;;;;;0.20;0.20;;;28.30;81.60;;;;;;4429859;32;20081;-65
2022/07/13 12:10:34;;;;;;;0.20;0.20;;;28.40;82.10;;;;;;4430190;32;20427;-65
2022/07/13 12:13:00;;;;;;;0.20;0.20;;;28.70;80.10;;;;;;4421765;32;20069;-65
2022/07/13 12:15:26;;;;;;;0.10;0.10;;;28.90;77.50;;;;;;4427674;32;20101;-65
2022/07/13 12:17:53;;;;;;;0.00;0.00;;;28.90;78.60;;;;;;4444423;32;20398;-65
2022/07/13 12:20:22;;;;;;;0.45;0.37;;;29.30;77.40;;;;;;4444575;32;20064;-65
2022/07/13 12:22:53;;;;;;;0.10;0.10;;;30.20;76.00;;;;;;4411074;32;20465;-65
2022/07/13 12:25:24;;;;;;;0.05;0.03;;;30.50;72.40;;;;;;4424539;32;20065;-65
2022/07/13 12:27:52;;;;;;;0.20;0.10;;;30.40;72.30;;;;;;4429636;32;20121;-65
2022/07/13 12:30:17;;;;;;;0.00;0.00;;;30.60;73.00;;;;;;4427879;32;20512;-66
2022/07/13 12:33:05;;;;;;;0.08;0.08;;;31.50;68.50;;;;;;4418630;32;20128;-66
2022/07/13 12:35:36;;;;;;;0.10;0.10;;;32.10;66.70;;;;;;4421563;32;20501;-66
2022/07/13 12:38:08;;;;;;;0.00;0.00;;;32.00;64.30;;;;;;4444017;32;20064;-66
2022/07/13 12:40:39;;;;;;;0.00;0.00;;;31.50;65.80;;;;;;4444313;32;20077;-66
2022/07/13 12:43:15;;;;;;;0.20;0.20;;;31.00;65.40;;;;;;4437644;32;20057;-65
2022/07/13 12:45:41;;;;;;;0.00;0.00;;;30.60;66.40;;;;;;4422021;32;20069;-65
2022/07/13 12:48:23;;;;;;;0.00;0.00;;;30.30;66.10;;;;;;4415921;32;20073;-65
2022/07/13 12:51:07;;;;;;;0.00;0.00;;;30.40;67.60;;;;;;4424764;32;20516;-65